sensor_id;sensor_type;location;lat;lon;timestamp;temperature;humidity
21353;DHT22;10834;52.268;6.770;2023-02-03T00:01:01;8.20;99.90
21353;DHT22;10834;52.268;6.770;2023-02-03T00:03:47;8.20;99.90
21353;DHT22;10834;52.268;6.770;2023-02-03T00:06:33;8.20;99.90
21353;DHT22;10834;52.268;6.770;2023-02-03T00:09:19;8.20;99.90
21353;DHT22;10834;52.268;6.770;2023-02-03T00:12:06;8.20;99.90
21353;DHT22;10834;52.268;6.770;2023-02-03T00:14:52;8.20;99.90
21353;DHT22;10834;52.268;6.770;2023-02-03T00:17:38;8.20;99.90
21353;DHT22;10834;52.268;6.770;2023-02-03T00:20:26;8.30;99.90
21353;DHT22;10834;52.268;6.770;2023-02-03T00:23:12;8.30;99.90
21353;DHT22;10834;52.268;6.770;2023-02-03T00:26:09;8.30;99.90
21353;DHT22;10834;52.268;6.770;2023-02-03T00:28:58;8.30;99.90
21353;DHT22;10834;52.268;6.770;2023-02-03T00:31:44;8.30;99.90
21353;DHT22;10834;52.268;6.770;2023-02-03T00:34:30;8.30;99.90
21353;DHT22;10834;52.268;6.770;2023-02-03T00:37:16;8.30;99.90
21353;DHT22;10834;52.268;6.770;2023-02-03T00:40:03;8.30;99.90
21353;DHT22;10834;52.268;6.770;2023-02-03T00:42:49;8.30;99.90
21353;DHT22;10834;52.268;6.770;2023-02-03T00:45:35;8.40;99.90
21353;DHT22;10834;52.268;6.770;2023-02-03T00:48:21;8.40;99.90
21353;DHT22;10834;52.268;6.770;2023-02-03T00:51:08;8.40;99.90
21353;DHT22;10834;52.268;6.770;2023-02-03T00:53:54;8.40;99.90
21353;DHT22;10834;52.268;6.770;2023-02-03T00:56:40;8.40;99.90
21353;DHT22;10834;52.268;6.770;2023-02-03T00:59:26;8.40;99.90
21353;DHT22;10834;52.268;6.770;2023-02-03T01:02:13;8.40;99.90
21353;DHT22;10834;52.268;6.770;2023-02-03T01:04:59;8.40;99.90
21353;DHT22;10834;52.268;6.770;2023-02-03T01:07:45;8.40;99.90
21353;DHT22;10834;52.268;6.770;2023-02-03T01:10:31;8.40;99.90
21353;DHT22;10834;52.268;6.770;2023-02-03T01:13:18;8.40;99.90
21353;DHT22;10834;52.268;6.770;2023-02-03T01:16:07;8.40;99.90
21353;DHT22;10834;52.268;6.770;2023-02-03T01:18:54;8.40;99.90
21353;DHT22;10834;52.268;6.770;2023-02-03T01:21:40;8.40;99.90
21353;DHT22;10834;52.268;6.770;2023-02-03T01:24:28;8.50;99.90
21353;DHT22;10834;52.268;6.770;2023-02-03T01:27:15;8.50;99.90
21353;DHT22;10834;52.268;6.770;2023-02-03T01:30:01;8.50;99.90
21353;DHT22;10834;52.268;6.770;2023-02-03T01:32:47;8.50;99.90
21353;DHT22;10834;52.268;6.770;2023-02-03T01:35:33;8.50;99.90
21353;DHT22;10834;52.268;6.770;2023-02-03T01:38:20;8.50;99.90
21353;DHT22;10834;52.268;6.770;2023-02-03T01:41:09;8.50;99.90
21353;DHT22;10834;52.268;6.770;2023-02-03T01:43:58;8.50;99.90
21353;DHT22;10834;52.268;6.770;2023-02-03T01:46:47;8.50;99.90
21353;DHT22;10834;52.268;6.770;2023-02-03T01:49:35;8.50;99.90
21353;DHT22;10834;52.268;6.770;2023-02-03T01:52:22;8.50;99.90
21353;DHT22;10834;52.268;6.770;2023-02-03T01:55:12;8.60;99.90
21353;DHT22;10834;52.268;6.770;2023-02-03T01:58:03;8.50;99.90
21353;DHT22;10834;52.268;6.770;2023-02-03T02:00:51;8.60;99.90
21353;DHT22;10834;52.268;6.770;2023-02-03T02:03:47;8.60;99.90
21353;DHT22;10834;52.268;6.770;2023-02-03T02:06:35;8.60;99.90
21353;DHT22;10834;52.268;6.770;2023-02-03T02:09:21;8.60;99.90
21353;DHT22;10834;52.268;6.770;2023-02-03T02:12:10;8.50;99.90
21353;DHT22;10834;52.268;6.770;2023-02-03T02:14:56;8.50;99.90
21353;DHT22;10834;52.268;6.770;2023-02-03T02:27:27;8.50;99.90
21353;DHT22;10834;52.268;6.770;2023-02-03T02:33:12;8.50;99.90
21353;DHT22;10834;52.268;6.770;2023-02-03T02:36:23;8.50;99.90
21353;DHT22;10834;52.268;6.770;2023-02-03T02:42:45;8.60;99.90
21353;DHT22;10834;52.268;6.770;2023-02-03T02:46:21;8.50;99.90
21353;DHT22;10834;52.268;6.770;2023-02-03T02:52:04;8.50;99.90
21353;DHT22;10834;52.268;6.770;2023-02-03T02:54:55;8.60;99.90
21353;DHT22;10834;52.268;6.770;2023-02-03T02:57:43;8.50;99.90
21353;DHT22;10834;52.268;6.770;2023-02-03T03:00:33;8.50;99.90
21353;DHT22;10834;52.268;6.770;2023-02-03T03:03:22;8.50;99.90
21353;DHT22;10834;52.268;6.770;2023-02-03T03:06:16;8.50;99.90
21353;DHT22;10834;52.268;6.770;2023-02-03T03:09:19;8.50;99.90
21353;DHT22;10834;52.268;6.770;2023-02-03T03:12:20;8.50;99.90
21353;DHT22;10834;52.268;6.770;2023-02-03T03:15:10;8.60;99.90
21353;DHT22;10834;52.268;6.770;2023-02-03T03:18:13;8.60;99.90
21353;DHT22;10834;52.268;6.770;2023-02-03T03:21:03;8.60;99.90
21353;DHT22;10834;52.268;6.770;2023-02-03T03:23:53;8.60;99.90
21353;DHT22;10834;52.268;6.770;2023-02-03T03:29:44;8.50;99.90
21353;DHT22;10834;52.268;6.770;2023-02-03T03:32:33;8.60;99.90
21353;DHT22;10834;52.268;6.770;2023-02-03T03:35:19;8.50;99.90
21353;DHT22;10834;52.268;6.770;2023-02-03T03:38:10;8.50;99.90
21353;DHT22;10834;52.268;6.770;2023-02-03T03:41:04;8.60;99.90
21353;DHT22;10834;52.268;6.770;2023-02-03T03:43:55;8.60;99.90
21353;DHT22;10834;52.268;6.770;2023-02-03T03:46:49;8.50;99.90
21353;DHT22;10834;52.268;6.770;2023-02-03T03:49:38;8.50;99.90
21353;DHT22;10834;52.268;6.770;2023-02-03T03:52:30;8.50;99.90
21353;DHT22;10834;52.268;6.770;2023-02-03T03:55:18;8.50;99.90
21353;DHT22;10834;52.268;6.770;2023-02-03T03:58:18;8.50;99.90
21353;DHT22;10834;52.268;6.770;2023-02-03T04:01:06;8.50;99.90
21353;DHT22;10834;52.268;6.770;2023-02-03T04:03:59;8.50;99.90
21353;DHT22;10834;52.268;6.770;2023-02-03T04:06:46;8.50;99.90
21353;DHT22;10834;52.268;6.770;2023-02-03T04:09:33;8.60;99.90
21353;DHT22;10834;52.268;6.770;2023-02-03T04:12:22;8.60;99.90
21353;DHT22;10834;52.268;6.770;2023-02-03T04:15:08;8.50;99.90
21353;DHT22;10834;52.268;6.770;2023-02-03T04:17:55;8.60;99.90
21353;DHT22;10834;52.268;6.770;2023-02-03T04:20:42;8.60;99.90
21353;DHT22;10834;52.268;6.770;2023-02-03T04:23:28;8.60;99.90
21353;DHT22;10834;52.268;6.770;2023-02-03T04:26:14;8.60;99.90
21353;DHT22;10834;52.268;6.770;2023-02-03T04:29:00;8.60;99.90
21353;DHT22;10834;52.268;6.770;2023-02-03T04:31:47;8.60;99.90
21353;DHT22;10834;52.268;6.770;2023-02-03T04:34:33;8.60;99.90
21353;DHT22;10834;52.268;6.770;2023-02-03T04:37:19;8.60;99.90
21353;DHT22;10834;52.268;6.770;2023-02-03T04:40:06;8.60;99.90
21353;DHT22;10834;52.268;6.770;2023-02-03T04:42:53;8.60;99.90
21353;DHT22;10834;52.268;6.770;2023-02-03T04:45:39;8.60;99.90
21353;DHT22;10834;52.268;6.770;2023-02-03T04:48:25;8.60;99.90
21353;DHT22;10834;52.268;6.770;2023-02-03T04:51:11;8.60;99.90
21353;DHT22;10834;52.268;6.770;2023-02-03T04:53:57;8.70;99.90
21353;DHT22;10834;52.268;6.770;2023-02-03T04:56:44;8.70;99.90
21353;DHT22;10834;52.268;6.770;2023-02-03T04:59:29;8.70;99.90
21353;DHT22;10834;52.268;6.770;2023-02-03T05:02:15;8.70;99.90
21353;DHT22;10834;52.268;6.770;2023-02-03T05:05:02;8.60;99.90
21353;DHT22;10834;52.268;6.770;2023-02-03T05:07:48;8.70;99.90
21353;DHT22;10834;52.268;6.770;2023-02-03T05:10:34;8.70;99.90
21353;DHT22;10834;52.268;6.770;2023-02-03T05:13:20;8.70;99.90
21353;DHT22;10834;52.268;6.770;2023-02-03T05:16:06;8.70;99.90
21353;DHT22;10834;52.268;6.770;2023-02-03T05:18:52;8.70;99.90
21353;DHT22;10834;52.268;6.770;2023-02-03T05:21:38;8.70;99.90
21353;DHT22;10834;52.268;6.770;2023-02-03T05:24:24;8.70;99.90
21353;DHT22;10834;52.268;6.770;2023-02-03T05:27:10;8.70;99.90
21353;DHT22;10834;52.268;6.770;2023-02-03T05:29:56;8.70;99.90
21353;DHT22;10834;52.268;6.770;2023-02-03T05:32:42;8.70;99.90
21353;DHT22;10834;52.268;6.770;2023-02-03T05:35:28;8.60;99.90
21353;DHT22;10834;52.268;6.770;2023-02-03T05:38:14;8.70;99.90
21353;DHT22;10834;52.268;6.770;2023-02-03T05:41:00;8.70;99.90
21353;DHT22;10834;52.268;6.770;2023-02-03T05:44:05;8.70;99.90
21353;DHT22;10834;52.268;6.770;2023-02-03T05:46:52;8.80;99.90
21353;DHT22;10834;52.268;6.770;2023-02-03T05:49:39;8.80;99.90
21353;DHT22;10834;52.268;6.770;2023-02-03T05:52:25;8.80;99.90
21353;DHT22;10834;52.268;6.770;2023-02-03T05:55:11;8.80;99.90
21353;DHT22;10834;52.268;6.770;2023-02-03T05:57:57;8.80;99.90
21353;DHT22;10834;52.268;6.770;2023-02-03T06:00:44;8.80;99.90
21353;DHT22;10834;52.268;6.770;2023-02-03T06:03:30;8.80;99.90
21353;DHT22;10834;52.268;6.770;2023-02-03T06:06:17;8.80;99.90
21353;DHT22;10834;52.268;6.770;2023-02-03T06:09:05;8.80;99.90
21353;DHT22;10834;52.268;6.770;2023-02-03T06:11:51;8.90;99.90
21353;DHT22;10834;52.268;6.770;2023-02-03T06:14:37;8.90;99.90
21353;DHT22;10834;52.268;6.770;2023-02-03T06:17:23;8.90;99.90
21353;DHT22;10834;52.268;6.770;2023-02-03T06:20:10;8.90;99.90
21353;DHT22;10834;52.268;6.770;2023-02-03T06:22:57;8.90;99.90
21353;DHT22;10834;52.268;6.770;2023-02-03T06:25:43;8.90;99.90
21353;DHT22;10834;52.268;6.770;2023-02-03T06:28:29;9.00;99.90
21353;DHT22;10834;52.268;6.770;2023-02-03T06:31:18;9.00;99.90
21353;DHT22;10834;52.268;6.770;2023-02-03T06:34:04;9.00;99.90
21353;DHT22;10834;52.268;6.770;2023-02-03T06:36:50;9.00;99.90
21353;DHT22;10834;52.268;6.770;2023-02-03T06:39:36;9.00;99.90
21353;DHT22;10834;52.268;6.770;2023-02-03T06:42:22;9.00;99.90
21353;DHT22;10834;52.268;6.770;2023-02-03T06:45:08;9.00;99.90
21353;DHT22;10834;52.268;6.770;2023-02-03T06:47:55;9.00;99.90
21353;DHT22;10834;52.268;6.770;2023-02-03T06:50:41;9.10;99.90
21353;DHT22;10834;52.268;6.770;2023-02-03T06:53:27;9.10;99.90
21353;DHT22;10834;52.268;6.770;2023-02-03T06:56:13;9.10;99.90
21353;DHT22;10834;52.268;6.770;2023-02-03T06:58:59;9.10;99.90
21353;DHT22;10834;52.268;6.770;2023-02-03T07:01:45;9.10;99.90
21353;DHT22;10834;52.268;6.770;2023-02-03T07:04:31;9.10;99.90
21353;DHT22;10834;52.268;6.770;2023-02-03T07:07:17;9.10;99.90
21353;DHT22;10834;52.268;6.770;2023-02-03T07:10:04;9.10;99.90
21353;DHT22;10834;52.268;6.770;2023-02-03T07:12:50;9.20;99.90
21353;DHT22;10834;52.268;6.770;2023-02-03T07:15:36;9.20;99.90
21353;DHT22;10834;52.268;6.770;2023-02-03T07:18:22;9.20;99.90
21353;DHT22;10834;52.268;6.770;2023-02-03T07:21:10;9.20;99.90
21353;DHT22;10834;52.268;6.770;2023-02-03T07:23:56;9.20;99.90
21353;DHT22;10834;52.268;6.770;2023-02-03T07:26:42;9.20;99.90
21353;DHT22;10834;52.268;6.770;2023-02-03T07:29:28;9.20;99.90
21353;DHT22;10834;52.268;6.770;2023-02-03T07:32:14;9.20;99.90
21353;DHT22;10834;52.268;6.770;2023-02-03T07:35:00;9.20;99.90
21353;DHT22;10834;52.268;6.770;2023-02-03T07:37:46;9.20;99.90
21353;DHT22;10834;52.268;6.770;2023-02-03T07:40:32;9.20;99.90
21353;DHT22;10834;52.268;6.770;2023-02-03T07:43:19;9.20;99.90
21353;DHT22;10834;52.268;6.770;2023-02-03T07:46:05;9.20;99.90
21353;DHT22;10834;52.268;6.770;2023-02-03T07:48:51;9.20;99.90
21353;DHT22;10834;52.268;6.770;2023-02-03T07:51:37;9.30;99.90
21353;DHT22;10834;52.268;6.770;2023-02-03T07:54:23;9.30;99.90
21353;DHT22;10834;52.268;6.770;2023-02-03T07:57:09;9.30;99.90
21353;DHT22;10834;52.268;6.770;2023-02-03T07:59:55;9.30;99.90
21353;DHT22;10834;52.268;6.770;2023-02-03T08:02:42;9.30;99.90
21353;DHT22;10834;52.268;6.770;2023-02-03T08:05:28;9.30;99.90
21353;DHT22;10834;52.268;6.770;2023-02-03T08:08:15;9.30;99.90
21353;DHT22;10834;52.268;6.770;2023-02-03T08:11:01;9.30;99.90
21353;DHT22;10834;52.268;6.770;2023-02-03T08:13:47;9.30;99.90
21353;DHT22;10834;52.268;6.770;2023-02-03T08:16:33;9.30;99.90
21353;DHT22;10834;52.268;6.770;2023-02-03T08:19:19;9.30;99.90
21353;DHT22;10834;52.268;6.770;2023-02-03T08:22:05;9.30;99.90
21353;DHT22;10834;52.268;6.770;2023-02-03T08:24:51;9.30;99.90
21353;DHT22;10834;52.268;6.770;2023-02-03T08:27:38;9.40;99.90
21353;DHT22;10834;52.268;6.770;2023-02-03T08:30:24;9.40;99.90
21353;DHT22;10834;52.268;6.770;2023-02-03T08:33:10;9.40;99.90
21353;DHT22;10834;52.268;6.770;2023-02-03T08:35:56;9.40;99.90
21353;DHT22;10834;52.268;6.770;2023-02-03T08:38:44;9.40;99.90
21353;DHT22;10834;52.268;6.770;2023-02-03T08:41:30;9.50;99.90
21353;DHT22;10834;52.268;6.770;2023-02-03T08:44:16;9.50;99.90
21353;DHT22;10834;52.268;6.770;2023-02-03T08:47:05;9.50;99.90
21353;DHT22;10834;52.268;6.770;2023-02-03T08:49:52;9.50;99.90
21353;DHT22;10834;52.268;6.770;2023-02-03T08:52:38;9.60;99.90
21353;DHT22;10834;52.268;6.770;2023-02-03T08:55:25;9.50;99.90
21353;DHT22;10834;52.268;6.770;2023-02-03T08:58:11;9.50;99.90
21353;DHT22;10834;52.268;6.770;2023-02-03T09:01:05;9.50;99.90
21353;DHT22;10834;52.268;6.770;2023-02-03T09:03:52;9.50;99.90
21353;DHT22;10834;52.268;6.770;2023-02-03T09:06:38;9.50;99.90
21353;DHT22;10834;52.268;6.770;2023-02-03T09:09:24;9.50;99.90
21353;DHT22;10834;52.268;6.770;2023-02-03T09:12:11;9.50;99.90
21353;DHT22;10834;52.268;6.770;2023-02-03T09:14:57;9.60;99.90
21353;DHT22;10834;52.268;6.770;2023-02-03T09:17:43;9.60;99.90
21353;DHT22;10834;52.268;6.770;2023-02-03T09:20:29;9.60;99.90
21353;DHT22;10834;52.268;6.770;2023-02-03T09:23:15;9.60;99.90
21353;DHT22;10834;52.268;6.770;2023-02-03T09:26:06;9.60;99.90
21353;DHT22;10834;52.268;6.770;2023-02-03T09:28:52;9.60;99.90
21353;DHT22;10834;52.268;6.770;2023-02-03T09:31:38;9.60;99.90
21353;DHT22;10834;52.268;6.770;2023-02-03T09:34:24;9.60;99.90
21353;DHT22;10834;52.268;6.770;2023-02-03T09:37:10;9.60;99.90
21353;DHT22;10834;52.268;6.770;2023-02-03T09:39:56;9.60;99.90
21353;DHT22;10834;52.268;6.770;2023-02-03T09:45:53;9.70;99.90
21353;DHT22;10834;52.268;6.770;2023-02-03T09:48:43;9.70;99.90
21353;DHT22;10834;52.268;6.770;2023-02-03T09:51:40;9.70;99.90
21353;DHT22;10834;52.268;6.770;2023-02-03T09:54:38;9.70;99.90
21353;DHT22;10834;52.268;6.770;2023-02-03T09:57:30;9.70;99.90
21353;DHT22;10834;52.268;6.770;2023-02-03T10:00:26;9.80;99.90
21353;DHT22;10834;52.268;6.770;2023-02-03T10:06:32;9.80;99.90
21353;DHT22;10834;52.268;6.770;2023-02-03T10:09:59;9.90;99.90
21353;DHT22;10834;52.268;6.770;2023-02-03T10:15:55;9.90;99.90
21353;DHT22;10834;52.268;6.770;2023-02-03T10:18:53;9.90;99.90
21353;DHT22;10834;52.268;6.770;2023-02-03T10:21:45;10.00;99.90
21353;DHT22;10834;52.268;6.770;2023-02-03T10:24:37;10.00;99.90
21353;DHT22;10834;52.268;6.770;2023-02-03T10:27:25;10.00;99.90
21353;DHT22;10834;52.268;6.770;2023-02-03T10:30:26;10.10;99.90
21353;DHT22;10834;52.268;6.770;2023-02-03T10:33:17;10.00;99.90
21353;DHT22;10834;52.268;6.770;2023-02-03T10:42:19;10.00;99.90
21353;DHT22;10834;52.268;6.770;2023-02-03T10:45:10;9.90;99.90
21353;DHT22;10834;52.268;6.770;2023-02-03T10:47:58;9.80;99.90
21353;DHT22;10834;52.268;6.770;2023-02-03T10:50:47;9.80;99.90
21353;DHT22;10834;52.268;6.770;2023-02-03T10:53:36;9.70;99.90
21353;DHT22;10834;52.268;6.770;2023-02-03T10:56:24;9.70;99.90
21353;DHT22;10834;52.268;6.770;2023-02-03T10:59:27;9.70;99.90
21353;DHT22;10834;52.268;6.770;2023-02-03T11:02:24;9.70;99.90
21353;DHT22;10834;52.268;6.770;2023-02-03T11:05:21;9.60;99.90
21353;DHT22;10834;52.268;6.770;2023-02-03T11:08:14;9.60;99.90
21353;DHT22;10834;52.268;6.770;2023-02-03T11:11:06;9.60;99.90
21353;DHT22;10834;52.268;6.770;2023-02-03T11:14:15;9.60;99.90
21353;DHT22;10834;52.268;6.770;2023-02-03T11:17:11;9.60;99.90
21353;DHT22;10834;52.268;6.770;2023-02-03T11:20:11;9.60;99.90
21353;DHT22;10834;52.268;6.770;2023-02-03T11:22:58;9.60;99.90
21353;DHT22;10834;52.268;6.770;2023-02-03T11:25:44;9.60;99.90
21353;DHT22;10834;52.268;6.770;2023-02-03T11:28:31;9.60;99.90
21353;DHT22;10834;52.268;6.770;2023-02-03T11:31:21;9.60;99.90
21353;DHT22;10834;52.268;6.770;2023-02-03T11:34:16;9.60;99.90
21353;DHT22;10834;52.268;6.770;2023-02-03T11:37:34;9.60;99.90
21353;DHT22;10834;52.268;6.770;2023-02-03T11:40:32;9.50;99.90
21353;DHT22;10834;52.268;6.770;2023-02-03T11:43:23;9.50;99.90
21353;DHT22;10834;52.268;6.770;2023-02-03T11:46:09;9.50;99.90
21353;DHT22;10834;52.268;6.770;2023-02-03T11:49:07;9.50;99.90
21353;DHT22;10834;52.268;6.770;2023-02-03T12:07:48;9.50;99.90
21353;DHT22;10834;52.268;6.770;2023-02-03T12:10:50;9.60;99.90
21353;DHT22;10834;52.268;6.770;2023-02-03T12:26:17;9.80;99.90
21353;DHT22;10834;52.268;6.770;2023-02-03T12:29:15;9.90;99.90
21353;DHT22;10834;52.268;6.770;2023-02-03T12:32:39;9.90;99.90
21353;DHT22;10834;52.268;6.770;2023-02-03T12:38:33;9.90;99.90
21353;DHT22;10834;52.268;6.770;2023-02-03T12:41:29;9.80;99.90
21353;DHT22;10834;52.268;6.770;2023-02-03T12:44:25;9.80;99.90
21353;DHT22;10834;52.268;6.770;2023-02-03T12:59:02;9.70;99.90
21353;DHT22;10834;52.268;6.770;2023-02-03T13:02:16;9.70;99.90
21353;DHT22;10834;52.268;6.770;2023-02-03T13:05:25;9.60;99.90
21353;DHT22;10834;52.268;6.770;2023-02-03T13:08:22;9.60;99.90
21353;DHT22;10834;52.268;6.770;2023-02-03T13:11:14;9.60;99.90
21353;DHT22;10834;52.268;6.770;2023-02-03T13:17:38;9.60;99.90
21353;DHT22;10834;52.268;6.770;2023-02-03T13:20:31;9.50;99.90
21353;DHT22;10834;52.268;6.770;2023-02-03T13:23:21;9.50;99.90
21353;DHT22;10834;52.268;6.770;2023-02-03T13:32:51;9.40;99.90
21353;DHT22;10834;52.268;6.770;2023-02-03T13:41:38;9.40;99.90
21353;DHT22;10834;52.268;6.770;2023-02-03T13:44:28;9.30;99.90
21353;DHT22;10834;52.268;6.770;2023-02-03T13:47:21;9.30;99.90
21353;DHT22;10834;52.268;6.770;2023-02-03T13:50:19;9.30;99.90
21353;DHT22;10834;52.268;6.770;2023-02-03T13:53:18;9.30;99.90
21353;DHT22;10834;52.268;6.770;2023-02-03T13:56:20;9.20;99.90
21353;DHT22;10834;52.268;6.770;2023-02-03T14:05:38;9.20;99.90
21353;DHT22;10834;52.268;6.770;2023-02-03T14:17:52;9.10;99.90
21353;DHT22;10834;52.268;6.770;2023-02-03T14:20:39;9.10;99.90
21353;DHT22;10834;52.268;6.770;2023-02-03T14:23:33;9.10;99.90
21353;DHT22;10834;52.268;6.770;2023-02-03T14:26:28;9.10;99.90
21353;DHT22;10834;52.268;6.770;2023-02-03T14:29:28;9.00;99.90
21353;DHT22;10834;52.268;6.770;2023-02-03T14:32:14;9.00;99.90
21353;DHT22;10834;52.268;6.770;2023-02-03T14:35:00;9.00;99.90
21353;DHT22;10834;52.268;6.770;2023-02-03T14:38:04;9.00;99.90
21353;DHT22;10834;52.268;6.770;2023-02-03T14:40:58;8.90;99.90
21353;DHT22;10834;52.268;6.770;2023-02-03T14:43:49;8.90;99.90
21353;DHT22;10834;52.268;6.770;2023-02-03T14:50:28;8.90;99.90
21353;DHT22;10834;52.268;6.770;2023-02-03T14:59:56;8.80;99.90
21353;DHT22;10834;52.268;6.770;2023-02-03T15:05:55;8.80;99.90
21353;DHT22;10834;52.268;6.770;2023-02-03T15:08:46;8.80;99.90
21353;DHT22;10834;52.268;6.770;2023-02-03T15:11:41;8.80;99.90
21353;DHT22;10834;52.268;6.770;2023-02-03T15:14:29;8.90;99.90
21353;DHT22;10834;52.268;6.770;2023-02-03T15:17:25;8.90;99.90
21353;DHT22;10834;52.268;6.770;2023-02-03T15:23:24;9.00;99.90
21353;DHT22;10834;52.268;6.770;2023-02-03T15:26:14;9.00;99.90
21353;DHT22;10834;52.268;6.770;2023-02-03T15:29:02;9.00;99.90
21353;DHT22;10834;52.268;6.770;2023-02-03T15:31:52;9.00;99.90
21353;DHT22;10834;52.268;6.770;2023-02-03T15:34:51;8.90;99.90
21353;DHT22;10834;52.268;6.770;2023-02-03T15:37:57;8.90;99.90
21353;DHT22;10834;52.268;6.770;2023-02-03T15:40:52;8.90;99.90
21353;DHT22;10834;52.268;6.770;2023-02-03T15:43:41;8.90;99.90
21353;DHT22;10834;52.268;6.770;2023-02-03T15:46:41;8.90;99.90
21353;DHT22;10834;52.268;6.770;2023-02-03T15:49:34;8.80;99.90
21353;DHT22;10834;52.268;6.770;2023-02-03T15:52:24;8.70;99.90
21353;DHT22;10834;52.268;6.770;2023-02-03T15:58:25;8.60;99.90
21353;DHT22;10834;52.268;6.770;2023-02-03T16:01:13;8.60;99.90
21353;DHT22;10834;52.268;6.770;2023-02-03T16:04:00;8.50;99.90
21353;DHT22;10834;52.268;6.770;2023-02-03T16:06:48;8.50;99.90
21353;DHT22;10834;52.268;6.770;2023-02-03T16:09:41;8.40;99.90
21353;DHT22;10834;52.268;6.770;2023-02-03T16:12:27;8.40;99.90
21353;DHT22;10834;52.268;6.770;2023-02-03T16:15:22;8.40;99.90
21353;DHT22;10834;52.268;6.770;2023-02-03T16:18:15;8.30;99.90
21353;DHT22;10834;52.268;6.770;2023-02-03T16:21:03;8.20;99.90
21353;DHT22;10834;52.268;6.770;2023-02-03T16:23:50;8.20;99.90
21353;DHT22;10834;52.268;6.770;2023-02-03T16:26:36;8.10;99.90
21353;DHT22;10834;52.268;6.770;2023-02-03T16:29:28;8.10;99.90
21353;DHT22;10834;52.268;6.770;2023-02-03T16:32:32;8.00;99.90
21353;DHT22;10834;52.268;6.770;2023-02-03T16:35:37;8.00;99.90
21353;DHT22;10834;52.268;6.770;2023-02-03T16:38:49;7.90;99.90
21353;DHT22;10834;52.268;6.770;2023-02-03T16:41:57;7.80;99.90
21353;DHT22;10834;52.268;6.770;2023-02-03T16:45:03;7.70;99.90
21353;DHT22;10834;52.268;6.770;2023-02-03T16:48:10;7.70;99.90
21353;DHT22;10834;52.268;6.770;2023-02-03T16:51:16;7.60;99.90
21353;DHT22;10834;52.268;6.770;2023-02-03T16:54:02;7.60;99.90
21353;DHT22;10834;52.268;6.770;2023-02-03T16:56:48;7.60;99.90
21353;DHT22;10834;52.268;6.770;2023-02-03T16:59:36;7.60;99.90
21353;DHT22;10834;52.268;6.770;2023-02-03T17:02:22;7.60;99.90
21353;DHT22;10834;52.268;6.770;2023-02-03T17:05:08;7.70;99.90
21353;DHT22;10834;52.268;6.770;2023-02-03T17:07:54;7.70;99.90
21353;DHT22;10834;52.268;6.770;2023-02-03T17:10:41;7.60;99.90
21353;DHT22;10834;52.268;6.770;2023-02-03T17:13:28;7.60;99.90
21353;DHT22;10834;52.268;6.770;2023-02-03T17:16:20;7.70;99.90
21353;DHT22;10834;52.268;6.770;2023-02-03T17:19:11;7.60;99.90
21353;DHT22;10834;52.268;6.770;2023-02-03T17:21:57;7.70;99.90
21353;DHT22;10834;52.268;6.770;2023-02-03T17:24:43;7.70;99.90
21353;DHT22;10834;52.268;6.770;2023-02-03T17:27:30;7.70;99.90
21353;DHT22;10834;52.268;6.770;2023-02-03T17:30:16;7.70;99.90
21353;DHT22;10834;52.268;6.770;2023-02-03T17:33:04;7.60;99.90
21353;DHT22;10834;52.268;6.770;2023-02-03T17:38:51;7.50;99.90
21353;DHT22;10834;52.268;6.770;2023-02-03T17:41:39;7.50;99.90
21353;DHT22;10834;52.268;6.770;2023-02-03T17:44:25;7.40;99.90
21353;DHT22;10834;52.268;6.770;2023-02-03T17:47:11;7.40;99.90
21353;DHT22;10834;52.268;6.770;2023-02-03T17:49:57;7.30;99.90
21353;DHT22;10834;52.268;6.770;2023-02-03T17:52:44;7.30;99.90
21353;DHT22;10834;52.268;6.770;2023-02-03T17:55:31;7.30;99.90
21353;DHT22;10834;52.268;6.770;2023-02-03T17:58:18;7.20;99.90
21353;DHT22;10834;52.268;6.770;2023-02-03T18:01:12;7.20;99.90
21353;DHT22;10834;52.268;6.770;2023-02-03T18:04:02;7.20;99.90
21353;DHT22;10834;52.268;6.770;2023-02-03T18:06:49;7.20;99.90
21353;DHT22;10834;52.268;6.770;2023-02-03T18:09:35;7.20;99.90
21353;DHT22;10834;52.268;6.770;2023-02-03T18:12:21;7.20;99.90
21353;DHT22;10834;52.268;6.770;2023-02-03T18:15:07;7.20;99.90
21353;DHT22;10834;52.268;6.770;2023-02-03T18:17:53;7.20;99.90
21353;DHT22;10834;52.268;6.770;2023-02-03T18:20:39;7.20;99.90
21353;DHT22;10834;52.268;6.770;2023-02-03T18:23:25;7.10;99.90
21353;DHT22;10834;52.268;6.770;2023-02-03T18:26:13;7.10;99.90
21353;DHT22;10834;52.268;6.770;2023-02-03T18:29:00;7.00;99.90
21353;DHT22;10834;52.268;6.770;2023-02-03T18:31:47;6.90;99.90
21353;DHT22;10834;52.268;6.770;2023-02-03T18:34:33;6.90;99.90
21353;DHT22;10834;52.268;6.770;2023-02-03T18:37:19;6.80;99.90
21353;DHT22;10834;52.268;6.770;2023-02-03T18:40:05;6.90;99.90
21353;DHT22;10834;52.268;6.770;2023-02-03T18:42:53;6.90;99.90
21353;DHT22;10834;52.268;6.770;2023-02-03T18:45:41;6.90;99.90
21353;DHT22;10834;52.268;6.770;2023-02-03T18:48:27;6.90;99.90
21353;DHT22;10834;52.268;6.770;2023-02-03T18:51:16;6.90;99.90
21353;DHT22;10834;52.268;6.770;2023-02-03T18:54:02;6.90;99.90
21353;DHT22;10834;52.268;6.770;2023-02-03T18:56:49;6.90;99.90
21353;DHT22;10834;52.268;6.770;2023-02-03T18:59:35;6.90;99.90
21353;DHT22;10834;52.268;6.770;2023-02-03T19:02:21;6.90;99.90
21353;DHT22;10834;52.268;6.770;2023-02-03T19:05:10;7.00;99.90
21353;DHT22;10834;52.268;6.770;2023-02-03T19:07:56;7.00;99.90
21353;DHT22;10834;52.268;6.770;2023-02-03T19:10:42;7.10;99.90
21353;DHT22;10834;52.268;6.770;2023-02-03T19:13:28;7.10;99.90
21353;DHT22;10834;52.268;6.770;2023-02-03T19:16:15;7.10;99.90
21353;DHT22;10834;52.268;6.770;2023-02-03T19:19:02;7.10;99.90
21353;DHT22;10834;52.268;6.770;2023-02-03T19:21:47;7.10;99.90
21353;DHT22;10834;52.268;6.770;2023-02-03T19:24:34;7.20;99.90
21353;DHT22;10834;52.268;6.770;2023-02-03T19:27:20;7.20;99.90
21353;DHT22;10834;52.268;6.770;2023-02-03T19:30:07;7.20;99.90
21353;DHT22;10834;52.268;6.770;2023-02-03T19:32:53;7.20;99.90
21353;DHT22;10834;52.268;6.770;2023-02-03T19:35:40;7.30;99.90
21353;DHT22;10834;52.268;6.770;2023-02-03T19:38:26;7.30;99.90
21353;DHT22;10834;52.268;6.770;2023-02-03T19:41:12;7.30;99.90
21353;DHT22;10834;52.268;6.770;2023-02-03T19:43:58;7.30;99.90
21353;DHT22;10834;52.268;6.770;2023-02-03T19:46:44;7.20;99.90
21353;DHT22;10834;52.268;6.770;2023-02-03T19:49:30;7.30;99.90
21353;DHT22;10834;52.268;6.770;2023-02-03T19:52:16;7.30;99.90
21353;DHT22;10834;52.268;6.770;2023-02-03T19:55:04;7.20;99.90
21353;DHT22;10834;52.268;6.770;2023-02-03T19:57:50;7.30;99.90
21353;DHT22;10834;52.268;6.770;2023-02-03T20:00:36;7.20;99.90
21353;DHT22;10834;52.268;6.770;2023-02-03T20:03:23;7.20;99.90
21353;DHT22;10834;52.268;6.770;2023-02-03T20:06:10;7.10;99.90
21353;DHT22;10834;52.268;6.770;2023-02-03T20:08:57;7.10;99.90
21353;DHT22;10834;52.268;6.770;2023-02-03T20:11:46;7.00;99.90
21353;DHT22;10834;52.268;6.770;2023-02-03T20:14:32;7.00;99.90
21353;DHT22;10834;52.268;6.770;2023-02-03T20:17:18;7.10;99.90
21353;DHT22;10834;52.268;6.770;2023-02-03T20:20:05;7.10;99.90
21353;DHT22;10834;52.268;6.770;2023-02-03T20:22:50;7.20;99.90